createdAt,value
2022-10-02T00:02:11.089Z,101034.50
2022-10-02T00:04:44.311Z,101033.75
2022-10-02T00:07:12.166Z,101035.69
2022-10-02T00:09:48.916Z,101037.72
2022-10-02T00:12:18.478Z,101030.88
2022-10-02T00:14:47.569Z,101036.16
2022-10-02T00:17:29.413Z,101034.59
2022-10-02T00:19:56.593Z,101035.41
2022-10-02T00:22:45.787Z,101040.50
2022-10-02T00:25:27.542Z,101041.72
2022-10-02T00:28:03.114Z,101044.47
2022-10-02T00:30:36.490Z,101040.06
2022-10-02T00:33:30.024Z,101040.06
2022-10-02T00:36:24.442Z,101052.44
2022-10-02T00:39:41.467Z,101056.72
2022-10-02T00:42:16.676Z,101050.81
2022-10-02T00:45:12.335Z,101055.97
2022-10-02T00:47:54.252Z,101059.94
2022-10-02T00:50:28.199Z,101053.97
2022-10-02T00:53:21.321Z,101058.38
2022-10-02T00:56:10.184Z,101052.78
2022-10-02T00:58:55.242Z,101054.75
2022-10-02T01:01:43.306Z,101062.69
2022-10-02T01:04:15.534Z,101070.66
2022-10-02T01:06:42.257Z,101065.06
2022-10-02T01:09:08.662Z,101074.16
2022-10-02T01:11:35.383Z,101078.94
2022-10-02T01:14:02.279Z,101076.16
2022-10-02T01:16:28.814Z,101076.13
2022-10-02T01:18:55.368Z,101075.72
2022-10-02T01:21:37.546Z,101076.47
2022-10-02T01:24:18.700Z,101070.06
2022-10-02T01:26:45.359Z,101070.75
2022-10-02T01:29:11.834Z,101073.16
2022-10-02T01:31:38.297Z,101076.31
2022-10-02T01:34:05.160Z,101074.28
2022-10-02T01:36:32.629Z,101076.38
2022-10-02T01:39:00.448Z,101069.19
2022-10-02T01:41:26.929Z,101076.72
2022-10-02T01:43:58.280Z,101068.34
2022-10-02T01:46:24.598Z,101076.66
2022-10-02T01:49:13.059Z,101069.97
2022-10-02T01:51:58.075Z,101067.59
2022-10-02T01:54:51.062Z,101071.16
2022-10-02T01:57:38.944Z,101063.63
2022-10-02T02:00:17.377Z,101069.25
2022-10-02T02:03:11.570Z,101066.06
2022-10-02T02:05:59.228Z,101068.03
2022-10-02T02:08:37.295Z,101067.69
2022-10-02T02:11:16.364Z,101065.31
2022-10-02T02:13:48.038Z,101063.63
2022-10-02T02:16:17.319Z,101058.88
2022-10-02T02:18:51.447Z,101062.81
2022-10-02T02:21:38.838Z,101061.22
2022-10-02T02:24:11.316Z,101069.09
2022-10-02T02:26:39.174Z,101071.09
2022-10-02T02:29:08.578Z,101071.50
2022-10-02T02:31:47.905Z,101065.84
2022-10-02T02:34:20.101Z,101061.84
2022-10-02T02:36:51.383Z,101067.44
2022-10-02T02:39:29.881Z,101067.34
2022-10-02T02:42:02.958Z,101065.31
2022-10-02T02:44:33.861Z,101060.53
2022-10-02T02:47:11.189Z,101065.94
2022-10-02T02:50:05.397Z,101062.72
2022-10-02T02:52:41.450Z,101065.94
2022-10-02T02:55:24.004Z,101057.25
2022-10-02T02:58:08.974Z,101063.16
2022-10-02T03:00:35.874Z,101075.94
2022-10-02T03:03:02.361Z,101076.31
2022-10-02T03:05:29.602Z,101075.94
2022-10-02T03:08:01.529Z,101068.00
2022-10-02T03:10:32.374Z,101066.09
2022-10-02T03:13:36.572Z,101071.19
2022-10-02T03:16:06.673Z,101073.22
2022-10-02T03:18:52.843Z,101075.53
2022-10-02T03:21:37.964Z,101066.78
2022-10-02T03:24:43.924Z,101072.00
2022-10-02T03:27:23.282Z,101072.75
2022-10-02T03:29:56.861Z,101080.75
2022-10-02T03:32:24.166Z,101071.59
2022-10-02T03:34:50.674Z,101059.97
2022-10-02T03:37:17.845Z,101066.25
2022-10-02T03:39:45.464Z,101063.47
2022-10-02T03:42:14.469Z,101062.00
2022-10-02T03:44:41.063Z,101055.63
2022-10-02T03:47:07.513Z,101053.34
2022-10-02T03:49:34.718Z,101049.66
2022-10-02T03:52:01.413Z,101056.84
2022-10-02T03:54:33.841Z,101054.06
2022-10-02T03:57:04.955Z,101064.38
2022-10-02T03:59:34.108Z,101057.59
2022-10-02T04:02:06.235Z,101060.81
2022-10-02T04:04:42.460Z,101062.41
2022-10-02T04:07:19.047Z,101060.03
2022-10-02T04:10:09.782Z,101065.22
2022-10-02T04:12:40.886Z,101065.97
2022-10-02T04:15:21.359Z,101061.13
2022-10-02T04:17:47.679Z,101069.84
2022-10-02T04:20:31.583Z,101075.06
2022-10-02T04:23:13.185Z,101071.00
2022-10-02T04:25:45.102Z,101069.41
2022-10-02T04:28:19.591Z,101066.16
2022-10-02T04:30:45.994Z,101070.50
2022-10-02T04:33:19.239Z,101074.84
2022-10-02T04:36:14.796Z,101084.38
2022-10-02T04:39:01.407Z,101086.72
2022-10-02T04:41:46.222Z,101086.00
2022-10-02T04:44:18.383Z,101088.34
2022-10-02T04:46:57.000Z,101090.34
2022-10-02T04:49:26.581Z,101097.88
2022-10-02T04:52:20.905Z,101094.75
2022-10-02T04:55:07.196Z,101091.25
2022-10-02T04:58:02.726Z,101086.72
2022-10-02T05:00:36.815Z,101085.97
2022-10-02T05:03:25.331Z,101082.00
2022-10-02T05:06:12.812Z,101082.00
2022-10-02T05:08:42.438Z,101083.53
2022-10-02T05:11:42.090Z,101083.59
2022-10-02T05:14:20.600Z,101085.16
2022-10-02T05:17:11.367Z,101091.94
2022-10-02T05:20:02.241Z,101095.97
2022-10-02T05:22:31.628Z,101093.13
2022-10-02T05:25:26.015Z,101096.72
2022-10-02T05:28:10.749Z,101095.00
2022-10-02T05:31:12.020Z,101104.25
2022-10-02T05:34:10.048Z,101103.75
2022-10-02T05:36:59.677Z,101107.34
2022-10-02T05:39:38.117Z,101117.69
2022-10-02T05:42:28.166Z,101102.19
2022-10-02T05:45:02.698Z,101094.16
2022-10-02T05:47:31.924Z,101098.88
2022-10-02T05:49:58.255Z,101099.66
2022-10-02T05:52:42.529Z,101099.28
2022-10-02T05:55:34.964Z,101103.28
2022-10-02T05:58:13.022Z,101119.97
2022-10-02T06:00:47.948Z,101107.47
2022-10-02T06:03:35.818Z,101108.00
2022-10-02T06:06:28.810Z,101119.13
2022-10-02T06:09:19.545Z,101121.09
2022-10-02T06:11:49.933Z,101132.91
2022-10-02T06:14:27.555Z,101137.28
2022-10-02T06:17:02.721Z,101137.28
2022-10-02T06:19:42.421Z,101142.88
2022-10-02T06:22:12.405Z,101144.06
2022-10-02T06:25:25.483Z,101149.22
2022-10-02T06:28:00.968Z,101151.91
2022-10-02T06:30:32.663Z,101161.06
2022-10-02T06:33:09.606Z,101155.38
2022-10-02T06:36:04.588Z,101157.03
2022-10-02T06:39:00.559Z,101166.13
2022-10-02T06:41:51.546Z,101168.03
2022-10-02T06:44:47.922Z,101174.00
2022-10-02T06:47:34.901Z,101177.25
2022-10-02T06:50:16.419Z,101179.09
2022-10-02T06:53:05.610Z,101176.59
2022-10-02T06:55:48.812Z,101182.19
2022-10-02T06:58:33.307Z,101194.94
2022-10-02T07:01:09.908Z,101187.00
2022-10-02T07:03:47.514Z,101198.09
2022-10-02T07:06:33.262Z,101195.78
2022-10-02T07:09:33.077Z,101198.59
2022-10-02T07:12:14.805Z,101192.66
2022-10-02T07:15:15.247Z,101194.59
2022-10-02T07:17:47.350Z,101194.06
2022-10-02T07:20:25.821Z,101202.88
2022-10-02T07:23:25.097Z,101199.53
2022-10-02T07:26:23.399Z,101189.91
2022-10-02T07:29:30.550Z,101199.84
2022-10-02T07:32:15.651Z,101208.38
2022-10-02T07:34:51.958Z,101217.09
2022-10-02T07:37:24.518Z,101217.53
2022-10-02T07:40:03.366Z,101223.88
2022-10-02T07:42:32.812Z,101230.59
2022-10-02T07:45:26.798Z,101232.56
2022-10-02T07:47:58.929Z,101229.81
2022-10-02T07:50:38.128Z,101242.91
2022-10-02T07:53:38.959Z,101239.97
2022-10-02T07:56:07.947Z,101243.97
2022-10-02T07:58:40.525Z,101243.50
2022-10-02T08:01:16.867Z,101252.59
2022-10-02T08:03:56.866Z,101254.19
2022-10-02T08:06:23.347Z,101253.81
2022-10-02T08:08:55.321Z,101255.25
2022-10-02T08:11:31.424Z,101238.38
2022-10-02T08:14:08.203Z,101245.59
2022-10-02T08:16:48.125Z,101250.16
2022-10-02T08:19:25.372Z,101250.38
2022-10-02T08:22:05.235Z,101244.41
2022-10-02T08:24:40.428Z,101261.28
2022-10-02T08:27:15.860Z,101248.81
2022-10-02T08:29:48.287Z,101247.06
2022-10-02T08:32:15.183Z,101249.84
2022-10-02T08:34:44.070Z,101256.53
2022-10-02T08:37:47.617Z,101251.78
2022-10-02T08:40:51.541Z,101257.59
2022-10-02T08:43:33.287Z,101260.56
2022-10-02T08:46:27.607Z,101265.34
2022-10-02T08:49:31.949Z,101258.41
2022-10-02T08:52:25.826Z,101266.19
2022-10-02T08:55:21.654Z,101277.53
2022-10-02T08:58:04.287Z,101262.91
2022-10-02T09:00:36.620Z,101267.56
2022-10-02T09:03:28.321Z,101258.75
2022-10-02T09:06:19.467Z,101268.84
2022-10-02T09:09:07.727Z,101272.44
2022-10-02T09:12:10.249Z,101271.59
2022-10-02T09:14:37.316Z,101276.53
2022-10-02T09:17:03.728Z,101280.41
2022-10-02T09:19:48.812Z,101279.03
2022-10-02T09:22:36.166Z,101287.66
2022-10-02T09:25:28.289Z,101280.31
2022-10-02T09:28:22.455Z,101283.63
2022-10-02T09:30:48.912Z,101285.88
2022-10-02T09:33:21.179Z,101290.28
2022-10-02T09:36:02.018Z,101289.69
2022-10-02T09:38:53.309Z,101284.16
2022-10-02T09:41:49.508Z,101285.03
2022-10-02T09:44:37.631Z,101285.47
2022-10-02T09:47:36.955Z,101294.78
2022-10-02T09:50:49.841Z,101296.31
2022-10-02T09:53:41.227Z,101307.19
2022-10-02T09:56:53.295Z,101308.34
2022-10-02T09:59:48.683Z,101309.91
2022-10-02T10:02:57.201Z,101306.84
2022-10-02T10:06:00.887Z,101308.59
2022-10-02T10:08:55.219Z,101305.50
2022-10-02T10:11:38.193Z,101310.19
2022-10-02T10:14:36.952Z,101313.34
2022-10-02T10:17:08.987Z,101303.28
2022-10-02T10:19:35.338Z,101311.97
2022-10-02T10:22:21.682Z,101317.56
2022-10-02T10:25:10.631Z,101320.38
2022-10-02T10:28:28.841Z,101320.16
2022-10-02T10:31:13.754Z,101328.28
2022-10-02T10:33:55.345Z,101327.63
2022-10-02T10:36:58.570Z,101324.81
2022-10-02T10:39:49.535Z,101327.63
2022-10-02T10:43:06.456Z,101335.75
2022-10-02T10:46:06.280Z,101331.69
2022-10-02T10:48:49.403Z,101328.53
2022-10-02T10:51:19.188Z,101323.97
2022-10-02T10:54:02.066Z,101336.94
2022-10-02T10:56:44.503Z,101343.56
2022-10-02T10:59:27.173Z,101335.69
2022-10-02T11:01:56.583Z,101349.66
2022-10-02T11:04:40.961Z,101348.59
2022-10-02T11:07:34.671Z,101362.19
2022-10-02T11:10:22.417Z,101351.59
2022-10-02T11:13:01.172Z,101359.19
2022-10-02T11:15:39.472Z,101369.41
2022-10-02T11:18:22.020Z,101365.84
2022-10-02T11:21:13.706Z,101359.13
2022-10-02T11:24:05.740Z,101359.38
2022-10-02T11:26:55.258Z,101367.72
2022-10-02T11:29:51.087Z,101382.41
2022-10-02T11:32:43.419Z,101381.31
2022-10-02T11:35:19.661Z,101385.44
2022-10-02T11:38:04.658Z,101382.88
2022-10-02T11:40:54.359Z,101375.69
2022-10-02T11:43:38.410Z,101384.56
2022-10-02T11:46:33.538Z,101385.91
2022-10-02T11:49:07.593Z,101386.25
2022-10-02T11:51:46.876Z,101378.50
2022-10-02T11:54:25.064Z,101377.25
2022-10-02T11:57:16.556Z,101374.09
2022-10-02T12:00:14.012Z,101384.59
2022-10-02T12:02:53.043Z,101391.69
2022-10-02T12:05:43.047Z,101386.72
2022-10-02T12:08:24.130Z,101390.94
2022-10-02T12:11:16.700Z,101383.56
2022-10-02T12:14:01.645Z,101386.44
2022-10-02T12:17:07.775Z,101394.13
2022-10-02T12:20:14.943Z,101395.34
2022-10-02T12:23:14.057Z,101398.94
2022-10-02T12:26:08.048Z,101395.91
2022-10-02T12:28:43.196Z,101398.34
2022-10-02T12:31:12.471Z,101395.25
2022-10-02T12:33:56.584Z,101400.66
2022-10-02T12:36:38.278Z,101393.47
2022-10-02T12:39:22.171Z,101393.13
2022-10-02T12:42:21.347Z,101397.63
2022-10-02T12:45:18.454Z,101400.66
2022-10-02T12:48:07.095Z,101396.72
2022-10-02T12:50:45.489Z,101395.66
2022-10-02T12:53:15.115Z,101386.16
2022-10-02T12:56:04.679Z,101390.50
2022-10-02T12:58:53.899Z,101395.16
2022-10-02T13:01:44.673Z,101386.25
2022-10-02T13:04:34.744Z,101394.69
2022-10-02T13:07:13.433Z,101407.50
2022-10-02T13:09:52.205Z,101409.56
2022-10-02T13:12:27.629Z,101414.03
2022-10-02T13:15:25.387Z,101409.06
2022-10-02T13:18:25.393Z,101408.53
2022-10-02T13:21:07.275Z,101402.88
2022-10-02T13:23:58.250Z,101409.94
2022-10-02T13:26:37.070Z,101396.16
2022-10-02T13:29:15.623Z,101407.34
2022-10-02T13:32:01.917Z,101407.75
2022-10-02T13:34:28.915Z,101406.78
2022-10-02T13:37:04.726Z,101410.56
2022-10-02T13:39:46.875Z,101409.00
2022-10-02T13:42:14.490Z,101412.47
2022-10-02T13:44:52.631Z,101405.22
2022-10-02T13:47:31.659Z,101412.09
2022-10-02T13:49:58.102Z,101412.91
2022-10-02T13:52:47.553Z,101415.81
2022-10-02T13:55:31.476Z,101422.41
2022-10-02T13:58:06.735Z,101415.03
2022-10-02T14:00:38.943Z,101412.06
2022-10-02T14:03:43.190Z,101413.47
2022-10-02T14:06:17.130Z,101414.72
2022-10-02T14:08:52.568Z,101424.75
2022-10-02T14:11:46.199Z,101421.50
2022-10-02T14:14:35.820Z,101426.84
2022-10-02T14:17:19.233Z,101426.56
2022-10-02T14:19:52.728Z,101426.66
2022-10-02T14:22:27.863Z,101432.31
2022-10-02T14:25:10.399Z,101424.75
2022-10-02T14:27:58.822Z,101434.50
2022-10-02T14:30:46.832Z,101436.56
2022-10-02T14:33:22.855Z,101438.66
2022-10-02T14:35:49.198Z,101434.03
2022-10-02T14:38:30.920Z,101433.78
2022-10-02T14:41:02.102Z,101429.56
2022-10-02T14:43:47.194Z,101447.19
2022-10-02T14:46:21.779Z,101443.78
2022-10-02T14:49:10.876Z,101448.69
2022-10-02T14:52:14.358Z,101451.75
2022-10-02T14:55:08.715Z,101456.56
2022-10-02T14:58:06.179Z,101463.25
2022-10-02T15:01:00.865Z,101467.84
2022-10-02T15:03:30.365Z,101463.81
2022-10-02T15:06:25.733Z,101465.88
2022-10-02T15:09:00.890Z,101459.16
2022-10-02T15:11:36.809Z,101459.91
2022-10-02T15:14:08.288Z,101458.78
2022-10-02T15:17:06.566Z,101453.38
2022-10-02T15:19:54.723Z,101467.56
2022-10-02T16:18:56.518Z,101534.44
2022-10-02T16:21:37.393Z,101536.34
2022-10-02T16:24:15.777Z,101537.97
2022-10-02T16:27:08.349Z,101544.06
2022-10-02T16:30:01.424Z,101542.06
2022-10-02T16:33:06.422Z,101545.66
2022-10-02T16:35:51.334Z,101554.91
2022-10-02T16:38:37.878Z,101555.66
2022-10-02T16:41:31.079Z,101551.47
2022-10-02T16:44:22.429Z,101567.22
2022-10-02T16:47:15.061Z,101571.72
2022-10-02T16:49:53.983Z,101579.56
2022-10-02T16:52:43.356Z,101572.16
2022-10-02T16:55:27.750Z,101584.66
2022-10-02T16:57:58.346Z,101587.56
2022-10-02T17:00:31.246Z,101599.25
2022-10-02T17:02:57.660Z,101610.16
2022-10-02T17:05:46.204Z,101617.53
2022-10-02T17:08:21.713Z,101618.53
2022-10-02T17:11:13.473Z,101621.47
2022-10-02T17:13:55.020Z,101631.56
2022-10-02T17:16:55.418Z,101633.69
2022-10-02T17:19:45.764Z,101637.41
2022-10-02T17:22:35.598Z,101641.56
2022-10-02T17:25:11.489Z,101647.19
2022-10-02T17:27:53.316Z,101652.84
2022-10-02T17:30:24.292Z,101653.31
2022-10-02T17:33:02.282Z,101663.31
2022-10-02T17:35:58.200Z,101671.78
2022-10-02T17:38:31.156Z,101682.19
2022-10-02T17:41:18.445Z,101681.13
2022-10-02T17:44:11.052Z,101685.56
2022-10-02T17:46:54.792Z,101698.34
2022-10-02T17:49:48.738Z,101700.44
2022-10-02T17:53:08.636Z,101707.63
2022-10-02T17:56:18.618Z,101711.69
2022-10-02T17:58:52.088Z,101714.50
2022-10-02T18:01:29.339Z,101719.28
2022-10-02T18:04:15.388Z,101727.28
2022-10-02T18:06:56.951Z,101726.47
2022-10-02T18:09:26.281Z,101732.91
2022-10-02T18:12:28.351Z,101740.50
2022-10-02T18:15:32.647Z,101747.28
2022-10-02T18:17:59.017Z,101750.09
2022-10-02T18:20:36.307Z,101742.13
2022-10-02T18:23:39.547Z,101747.75
2022-10-02T18:26:27.583Z,101753.31
2022-10-02T18:29:15.032Z,101756.94
2022-10-02T18:32:03.373Z,101750.56
2022-10-02T18:34:33.424Z,101754.53
2022-10-02T18:37:33.879Z,101765.69
2022-10-02T18:40:36.920Z,101770.47
2022-10-02T18:43:30.981Z,101772.88
2022-10-02T18:46:03.054Z,101778.03
2022-10-02T18:49:00.778Z,101784.81
2022-10-02T18:51:31.328Z,101792.38
2022-10-02T18:54:22.369Z,101791.56
2022-10-02T18:57:07.472Z,101796.34
2022-10-02T18:59:46.027Z,101795.13
2022-10-02T19:02:26.342Z,101804.63
2022-10-02T19:05:19.650Z,101815.34
2022-10-02T19:07:58.242Z,101812.56
2022-10-02T19:10:40.308Z,101810.16
2022-10-02T19:13:18.201Z,101819.25
2022-10-02T19:15:46.689Z,101824.03
2022-10-02T19:18:22.675Z,101807.25
2022-10-02T19:21:09.108Z,101826.38
2022-10-02T19:24:05.800Z,101830.31
2022-10-02T19:26:35.463Z,101833.09
2022-10-02T19:29:08.089Z,101845.03
2022-10-02T19:31:39.306Z,101841.84
2022-10-02T19:34:13.886Z,101842.63
2022-10-02T19:36:50.159Z,101847.41
2022-10-02T19:39:41.313Z,101847.03
2022-10-02T19:42:15.345Z,101860.94
2022-10-02T19:44:48.698Z,101857.75
2022-10-02T19:47:27.156Z,101851.38
2022-10-02T19:49:56.881Z,101856.91
2022-10-02T19:52:35.933Z,101863.22
2022-10-02T19:55:17.184Z,101866.38
2022-10-02T19:57:47.859Z,101865.94
2022-10-02T20:00:16.644Z,101869.53
2022-10-02T20:02:50.623Z,101862.78
2022-10-02T20:05:22.018Z,101870.31
2022-10-02T20:07:51.823Z,101869.50
2022-10-02T20:10:25.150Z,101886.16
2022-10-02T20:13:02.388Z,101886.94
2022-10-02T20:15:58.516Z,101883.31
2022-10-02T20:18:24.915Z,101893.28
2022-10-02T20:20:55.883Z,101896.44
2022-10-02T20:23:28.270Z,101896.72
2022-10-02T20:25:58.523Z,101897.88
2022-10-02T20:28:33.909Z,101905.38
2022-10-02T20:31:14.791Z,101898.50
2022-10-02T20:33:55.355Z,101903.63
2022-10-02T20:36:38.412Z,101913.91
2022-10-02T20:39:14.674Z,101920.56
2022-10-02T20:41:56.863Z,101924.44
2022-10-02T20:44:25.922Z,101932.72
2022-10-02T20:47:34.120Z,101934.16
2022-10-02T20:50:19.365Z,101931.38
2022-10-02T20:53:21.670Z,101934.88
2022-10-02T20:55:59.680Z,101941.59
2022-10-02T20:59:08.556Z,101957.50
2022-10-02T21:01:37.913Z,101953.16
2022-10-02T21:04:16.539Z,101952.78
2022-10-02T21:07:10.809Z,101961.09
2022-10-02T21:09:40.236Z,101963.84
2022-10-02T21:12:18.829Z,101968.59
2022-10-02T21:15:12.960Z,101965.72
2022-10-02T21:18:07.764Z,101972.31
2022-10-02T21:20:56.046Z,101977.41
2022-10-02T21:23:51.663Z,101975.00
2022-10-02T21:26:45.107Z,101980.94
2022-10-02T21:29:36.527Z,101982.06
2022-10-02T21:32:16.986Z,101987.88
2022-10-02T21:35:08.725Z,102001.22
2022-10-02T21:38:06.864Z,101991.72
2022-10-02T21:41:22.056Z,101995.56
2022-10-02T21:44:16.339Z,101993.50
2022-10-02T21:46:58.002Z,102008.47
2022-10-02T21:49:55.456Z,102012.34
2022-10-02T21:53:17.458Z,102011.00
2022-10-02T21:55:59.852Z,102005.72
2022-10-02T21:59:04.663Z,102011.94
2022-10-02T22:01:42.700Z,102016.63
2022-10-02T22:04:36.118Z,102014.50
2022-10-02T22:07:21.987Z,102015.22
2022-10-02T22:10:14.580Z,102027.47
2022-10-02T22:12:46.619Z,102030.19
2022-10-02T22:15:31.865Z,102034.25
2022-10-02T22:18:22.752Z,102031.91
2022-10-02T22:21:06.651Z,102034.84
2022-10-02T22:24:22.891Z,102043.28
2022-10-02T22:27:10.164Z,102040.22
2022-10-02T22:29:47.384Z,102047.06
2022-10-02T22:32:49.553Z,102060.09
2022-10-02T22:35:42.217Z,102061.28
2022-10-02T22:38:20.597Z,102066.38
2022-10-02T22:40:55.039Z,102059.97
2022-10-02T22:43:40.227Z,102071.41
2022-10-02T22:46:25.633Z,102077.31
2022-10-02T22:49:00.968Z,102069.41
2022-10-02T22:51:40.235Z,102067.00
2022-10-02T22:54:31.765Z,102072.91
2022-10-02T22:57:12.687Z,102076.66
2022-10-02T23:00:02.657Z,102083.00
2022-10-02T23:02:32.508Z,102079.81
2022-10-02T23:05:16.888Z,102078.66
2022-10-02T23:07:57.362Z,102073.13
2022-10-02T23:10:42.848Z,102085.06
2022-10-02T23:13:09.193Z,102078.34
2022-10-02T23:15:56.622Z,102077.97
2022-10-02T23:18:27.005Z,102079.50
2022-10-02T23:21:24.780Z,102074.69
2022-10-02T23:23:59.680Z,102078.69
2022-10-02T23:26:41.262Z,102081.78
2022-10-02T23:29:26.051Z,102078.94
2022-10-02T23:32:31.535Z,102080.03
2022-10-02T23:35:25.396Z,102079.13
2022-10-02T23:37:55.679Z,102080.72
2022-10-02T23:40:44.937Z,102087.44
2022-10-02T23:43:19.551Z,102079.06
2022-10-02T23:45:54.121Z,102088.22
2022-10-02T23:48:20.966Z,102090.63
2022-10-02T23:51:00.121Z,102076.53
2022-10-02T23:53:27.352Z,102085.91
2022-10-02T23:55:56.735Z,102082.75
2022-10-02T23:58:48.117Z,102085.13
